sensor_id;sensor_type;location;lat;lon;timestamp;temperature;humidity
73572;DHT22;61854;48.510;-2.770;2023-07-13T00:02:15;17.30;93.90
73572;DHT22;61854;48.510;-2.770;2023-07-13T00:04:40;17.30;94.20
73572;DHT22;61854;48.510;-2.770;2023-07-13T00:07:07;17.30;93.70
73572;DHT22;61854;48.510;-2.770;2023-07-13T00:09:33;17.20;93.70
73572;DHT22;61854;48.510;-2.770;2023-07-13T00:11:58;17.20;94.00
73572;DHT22;61854;48.510;-2.770;2023-07-13T00:14:25;17.20;94.00
73572;DHT22;61854;48.510;-2.770;2023-07-13T00:16:52;17.20;94.20
73572;DHT22;61854;48.510;-2.770;2023-07-13T00:19:18;17.30;94.10
73572;DHT22;61854;48.510;-2.770;2023-07-13T00:21:43;17.30;94.10
73572;DHT22;61854;48.510;-2.770;2023-07-13T00:24:12;17.30;94.00
73572;DHT22;61854;48.510;-2.770;2023-07-13T00:26:38;17.30;94.10
73572;DHT22;61854;48.510;-2.770;2023-07-13T00:29:04;17.30;94.20
73572;DHT22;61854;48.510;-2.770;2023-07-13T00:31:34;17.20;94.20
73572;DHT22;61854;48.510;-2.770;2023-07-13T00:34:00;17.20;94.40
73572;DHT22;61854;48.510;-2.770;2023-07-13T00:36:26;17.20;94.30
73572;DHT22;61854;48.510;-2.770;2023-07-13T00:38:52;17.10;94.60
73572;DHT22;61854;48.510;-2.770;2023-07-13T00:41:18;17.10;94.60
73572;DHT22;61854;48.510;-2.770;2023-07-13T00:43:44;17.20;94.70
73572;DHT22;61854;48.510;-2.770;2023-07-13T00:46:33;17.20;94.70
73572;DHT22;61854;48.510;-2.770;2023-07-13T00:49:02;17.10;94.90
73572;DHT22;61854;48.510;-2.770;2023-07-13T00:54:26;17.20;94.80
73572;DHT22;61854;48.510;-2.770;2023-07-13T00:56:56;17.10;95.10
73572;DHT22;61854;48.510;-2.770;2023-07-13T00:59:24;17.10;95.20
73572;DHT22;61854;48.510;-2.770;2023-07-13T01:01:49;17.10;95.30
73572;DHT22;61854;48.510;-2.770;2023-07-13T01:04:16;17.10;95.20
73572;DHT22;61854;48.510;-2.770;2023-07-13T01:06:42;17.10;95.30
73572;DHT22;61854;48.510;-2.770;2023-07-13T01:09:10;17.10;95.60
73572;DHT22;61854;48.510;-2.770;2023-07-13T01:11:36;17.10;95.60
73572;DHT22;61854;48.510;-2.770;2023-07-13T01:14:02;17.10;95.50
73572;DHT22;61854;48.510;-2.770;2023-07-13T01:16:32;17.00;95.60
73572;DHT22;61854;48.510;-2.770;2023-07-13T01:18:59;17.10;95.60
73572;DHT22;61854;48.510;-2.770;2023-07-13T01:21:27;17.00;95.80
73572;DHT22;61854;48.510;-2.770;2023-07-13T01:23:53;17.00;96.00
73572;DHT22;61854;48.510;-2.770;2023-07-13T01:26:18;17.00;95.80
73572;DHT22;61854;48.510;-2.770;2023-07-13T01:28:44;17.00;96.40
73572;DHT22;61854;48.510;-2.770;2023-07-13T01:31:10;17.00;95.90
73572;DHT22;61854;48.510;-2.770;2023-07-13T01:33:38;17.10;95.50
73572;DHT22;61854;48.510;-2.770;2023-07-13T01:36:08;17.10;95.60
73572;DHT22;61854;48.510;-2.770;2023-07-13T01:38:35;17.10;95.90
73572;DHT22;61854;48.510;-2.770;2023-07-13T01:41:01;17.10;95.90
73572;DHT22;61854;48.510;-2.770;2023-07-13T01:43:27;17.00;96.30
73572;DHT22;61854;48.510;-2.770;2023-07-13T01:45:53;17.00;96.20
73572;DHT22;61854;48.510;-2.770;2023-07-13T01:48:18;17.00;96.40
73572;DHT22;61854;48.510;-2.770;2023-07-13T01:50:45;17.00;96.20
73572;DHT22;61854;48.510;-2.770;2023-07-13T01:53:11;16.90;96.40
73572;DHT22;61854;48.510;-2.770;2023-07-13T01:55:37;16.90;96.50
73572;DHT22;61854;48.510;-2.770;2023-07-13T01:58:03;17.00;96.40
73572;DHT22;61854;48.510;-2.770;2023-07-13T02:00:29;16.90;96.40
73572;DHT22;61854;48.510;-2.770;2023-07-13T02:02:55;16.90;96.50
73572;DHT22;61854;48.510;-2.770;2023-07-13T02:05:21;16.90;96.50
73572;DHT22;61854;48.510;-2.770;2023-07-13T02:07:47;16.90;96.50
73572;DHT22;61854;48.510;-2.770;2023-07-13T02:10:14;16.90;96.50
73572;DHT22;61854;48.510;-2.770;2023-07-13T02:12:40;16.90;96.60
73572;DHT22;61854;48.510;-2.770;2023-07-13T02:15:07;16.90;96.50
73572;DHT22;61854;48.510;-2.770;2023-07-13T02:17:34;16.90;96.70
73572;DHT22;61854;48.510;-2.770;2023-07-13T02:20:00;16.90;96.60
73572;DHT22;61854;48.510;-2.770;2023-07-13T02:22:26;16.90;96.50
73572;DHT22;61854;48.510;-2.770;2023-07-13T02:24:51;16.80;96.80
73572;DHT22;61854;48.510;-2.770;2023-07-13T02:27:17;16.80;96.60
73572;DHT22;61854;48.510;-2.770;2023-07-13T02:29:43;16.80;96.70
73572;DHT22;61854;48.510;-2.770;2023-07-13T02:32:09;16.80;96.80
73572;DHT22;61854;48.510;-2.770;2023-07-13T02:34:35;16.70;96.80
73572;DHT22;61854;48.510;-2.770;2023-07-13T02:37:01;16.70;96.90
73572;DHT22;61854;48.510;-2.770;2023-07-13T02:39:26;16.70;97.00
73572;DHT22;61854;48.510;-2.770;2023-07-13T02:41:52;16.70;96.90
73572;DHT22;61854;48.510;-2.770;2023-07-13T02:44:18;16.80;96.80
73572;DHT22;61854;48.510;-2.770;2023-07-13T02:46:43;16.70;97.00
73572;DHT22;61854;48.510;-2.770;2023-07-13T02:49:10;16.70;97.10
73572;DHT22;61854;48.510;-2.770;2023-07-13T02:51:35;16.70;97.10
73572;DHT22;61854;48.510;-2.770;2023-07-13T02:54:02;16.80;97.10
73572;DHT22;61854;48.510;-2.770;2023-07-13T02:56:31;16.70;97.00
73572;DHT22;61854;48.510;-2.770;2023-07-13T02:58:57;16.60;97.30
73572;DHT22;61854;48.510;-2.770;2023-07-13T03:01:23;16.60;97.20
73572;DHT22;61854;48.510;-2.770;2023-07-13T03:03:50;16.60;97.40
73572;DHT22;61854;48.510;-2.770;2023-07-13T03:06:16;16.60;97.20
73572;DHT22;61854;48.510;-2.770;2023-07-13T03:08:43;16.60;97.10
73572;DHT22;61854;48.510;-2.770;2023-07-13T03:11:12;16.70;97.40
73572;DHT22;61854;48.510;-2.770;2023-07-13T03:13:40;16.70;97.40
73572;DHT22;61854;48.510;-2.770;2023-07-13T03:16:06;16.60;97.40
73572;DHT22;61854;48.510;-2.770;2023-07-13T03:18:32;16.70;97.40
73572;DHT22;61854;48.510;-2.770;2023-07-13T03:20:58;16.60;97.30
73572;DHT22;61854;48.510;-2.770;2023-07-13T03:23:24;16.70;97.40
73572;DHT22;61854;48.510;-2.770;2023-07-13T03:26:00;16.70;97.20
73572;DHT22;61854;48.510;-2.770;2023-07-13T03:28:26;16.70;97.00
73572;DHT22;61854;48.510;-2.770;2023-07-13T03:30:59;16.70;97.10
73572;DHT22;61854;48.510;-2.770;2023-07-13T03:33:25;16.70;97.00
73572;DHT22;61854;48.510;-2.770;2023-07-13T03:35:51;16.70;97.20
73572;DHT22;61854;48.510;-2.770;2023-07-13T03:38:16;16.70;97.00
73572;DHT22;61854;48.510;-2.770;2023-07-13T03:40:42;16.70;97.10
73572;DHT22;61854;48.510;-2.770;2023-07-13T03:43:07;16.70;97.10
73572;DHT22;61854;48.510;-2.770;2023-07-13T03:45:33;16.70;97.10
73572;DHT22;61854;48.510;-2.770;2023-07-13T03:47:59;16.70;97.00
73572;DHT22;61854;48.510;-2.770;2023-07-13T03:50:24;16.70;97.00
73572;DHT22;61854;48.510;-2.770;2023-07-13T03:52:50;16.70;97.40
73572;DHT22;61854;48.510;-2.770;2023-07-13T03:55:16;16.70;97.10
73572;DHT22;61854;48.510;-2.770;2023-07-13T03:57:42;16.70;97.20
73572;DHT22;61854;48.510;-2.770;2023-07-13T04:00:10;16.80;97.30
73572;DHT22;61854;48.510;-2.770;2023-07-13T04:02:36;16.70;97.10
73572;DHT22;61854;48.510;-2.770;2023-07-13T04:05:03;16.70;97.20
73572;DHT22;61854;48.510;-2.770;2023-07-13T04:07:28;16.70;97.10
73572;DHT22;61854;48.510;-2.770;2023-07-13T04:09:54;16.70;97.40
73572;DHT22;61854;48.510;-2.770;2023-07-13T04:12:19;16.70;97.20
73572;DHT22;61854;48.510;-2.770;2023-07-13T04:14:45;16.70;97.40
73572;DHT22;61854;48.510;-2.770;2023-07-13T04:17:11;16.60;97.50
73572;DHT22;61854;48.510;-2.770;2023-07-13T04:19:37;16.70;97.40
73572;DHT22;61854;48.510;-2.770;2023-07-13T04:22:02;16.70;97.40
73572;DHT22;61854;48.510;-2.770;2023-07-13T04:24:28;16.70;97.40
73572;DHT22;61854;48.510;-2.770;2023-07-13T04:26:54;16.70;97.50
73572;DHT22;61854;48.510;-2.770;2023-07-13T04:29:20;16.70;97.20
73572;DHT22;61854;48.510;-2.770;2023-07-13T04:31:46;16.70;97.50
73572;DHT22;61854;48.510;-2.770;2023-07-13T04:34:12;16.70;97.30
73572;DHT22;61854;48.510;-2.770;2023-07-13T04:36:37;16.60;97.50
73572;DHT22;61854;48.510;-2.770;2023-07-13T04:39:03;16.70;97.40
73572;DHT22;61854;48.510;-2.770;2023-07-13T04:41:29;16.70;97.40
73572;DHT22;61854;48.510;-2.770;2023-07-13T04:43:54;16.70;97.60
73572;DHT22;61854;48.510;-2.770;2023-07-13T04:46:20;16.70;97.60
73572;DHT22;61854;48.510;-2.770;2023-07-13T04:48:46;16.70;97.40
73572;DHT22;61854;48.510;-2.770;2023-07-13T04:51:12;16.70;97.40
73572;DHT22;61854;48.510;-2.770;2023-07-13T04:53:38;16.70;97.60
73572;DHT22;61854;48.510;-2.770;2023-07-13T04:56:04;16.70;97.50
73572;DHT22;61854;48.510;-2.770;2023-07-13T04:58:30;16.60;97.80
73572;DHT22;61854;48.510;-2.770;2023-07-13T05:01:04;16.60;97.60
73572;DHT22;61854;48.510;-2.770;2023-07-13T05:03:30;16.70;97.50
73572;DHT22;61854;48.510;-2.770;2023-07-13T05:06:02;16.80;97.50
73572;DHT22;61854;48.510;-2.770;2023-07-13T05:08:28;16.80;97.40
73572;DHT22;61854;48.510;-2.770;2023-07-13T05:10:54;16.70;97.40
73572;DHT22;61854;48.510;-2.770;2023-07-13T05:13:20;16.70;97.40
73572;DHT22;61854;48.510;-2.770;2023-07-13T05:15:47;16.70;97.80
73572;DHT22;61854;48.510;-2.770;2023-07-13T05:18:13;16.70;97.70
73572;DHT22;61854;48.510;-2.770;2023-07-13T05:20:38;16.80;97.40
73572;DHT22;61854;48.510;-2.770;2023-07-13T05:23:05;16.80;97.30
73572;DHT22;61854;48.510;-2.770;2023-07-13T05:25:30;16.80;97.60
73572;DHT22;61854;48.510;-2.770;2023-07-13T05:27:56;16.90;97.10
73572;DHT22;61854;48.510;-2.770;2023-07-13T05:30:22;16.90;97.10
73572;DHT22;61854;48.510;-2.770;2023-07-13T05:32:47;17.00;97.00
73572;DHT22;61854;48.510;-2.770;2023-07-13T05:35:13;17.00;97.00
73572;DHT22;61854;48.510;-2.770;2023-07-13T05:37:38;16.90;97.00
73572;DHT22;61854;48.510;-2.770;2023-07-13T05:40:05;16.90;97.20
73572;DHT22;61854;48.510;-2.770;2023-07-13T05:42:30;17.00;96.70
73572;DHT22;61854;48.510;-2.770;2023-07-13T05:44:59;17.10;97.00
73572;DHT22;61854;48.510;-2.770;2023-07-13T05:47:25;17.10;96.80
73572;DHT22;61854;48.510;-2.770;2023-07-13T05:49:50;17.10;96.90
73572;DHT22;61854;48.510;-2.770;2023-07-13T05:52:16;17.10;96.90
73572;DHT22;61854;48.510;-2.770;2023-07-13T05:54:41;17.10;96.80
73572;DHT22;61854;48.510;-2.770;2023-07-13T05:57:07;17.10;97.00
73572;DHT22;61854;48.510;-2.770;2023-07-13T05:59:33;17.10;96.60
73572;DHT22;61854;48.510;-2.770;2023-07-13T06:01:58;17.20;96.70
73572;DHT22;61854;48.510;-2.770;2023-07-13T06:04:24;17.20;96.90
73572;DHT22;61854;48.510;-2.770;2023-07-13T06:06:49;17.30;96.40
73572;DHT22;61854;48.510;-2.770;2023-07-13T06:09:15;17.30;96.20
73572;DHT22;61854;48.510;-2.770;2023-07-13T06:11:42;17.30;95.80
73572;DHT22;61854;48.510;-2.770;2023-07-13T06:14:08;17.30;95.80
73572;DHT22;61854;48.510;-2.770;2023-07-13T06:16:33;17.30;95.60
73572;DHT22;61854;48.510;-2.770;2023-07-13T06:18:59;17.40;95.80
73572;DHT22;61854;48.510;-2.770;2023-07-13T06:21:24;17.40;95.60
73572;DHT22;61854;48.510;-2.770;2023-07-13T06:23:52;17.50;95.40
73572;DHT22;61854;48.510;-2.770;2023-07-13T06:26:20;17.40;95.70
73572;DHT22;61854;48.510;-2.770;2023-07-13T06:28:46;17.50;95.60
73572;DHT22;61854;48.510;-2.770;2023-07-13T06:31:13;17.50;95.50
73572;DHT22;61854;48.510;-2.770;2023-07-13T06:33:39;17.50;95.40
73572;DHT22;61854;48.510;-2.770;2023-07-13T06:36:10;17.50;95.00
73572;DHT22;61854;48.510;-2.770;2023-07-13T06:38:39;17.50;95.90
73572;DHT22;61854;48.510;-2.770;2023-07-13T06:41:06;17.60;95.00
73572;DHT22;61854;48.510;-2.770;2023-07-13T06:43:32;17.60;95.60
73572;DHT22;61854;48.510;-2.770;2023-07-13T06:45:58;17.60;95.20
73572;DHT22;61854;48.510;-2.770;2023-07-13T06:48:25;17.70;94.80
73572;DHT22;61854;48.510;-2.770;2023-07-13T06:50:51;17.70;95.00
73572;DHT22;61854;48.510;-2.770;2023-07-13T06:53:19;17.90;94.40
73572;DHT22;61854;48.510;-2.770;2023-07-13T06:55:45;17.80;94.30
73572;DHT22;61854;48.510;-2.770;2023-07-13T06:58:16;17.80;94.80
73572;DHT22;61854;48.510;-2.770;2023-07-13T07:00:42;17.80;94.40
73572;DHT22;61854;48.510;-2.770;2023-07-13T07:03:08;17.80;94.40
73572;DHT22;61854;48.510;-2.770;2023-07-13T07:05:33;17.90;94.50
73572;DHT22;61854;48.510;-2.770;2023-07-13T07:07:59;17.90;94.40
73572;DHT22;61854;48.510;-2.770;2023-07-13T07:10:25;17.90;94.20
73572;DHT22;61854;48.510;-2.770;2023-07-13T07:12:51;17.90;93.70
73572;DHT22;61854;48.510;-2.770;2023-07-13T07:15:18;17.90;94.00
73572;DHT22;61854;48.510;-2.770;2023-07-13T07:17:44;18.00;93.80
73572;DHT22;61854;48.510;-2.770;2023-07-13T07:20:10;17.90;93.90
73572;DHT22;61854;48.510;-2.770;2023-07-13T07:22:39;17.80;94.00
73572;DHT22;61854;48.510;-2.770;2023-07-13T07:25:05;17.90;93.90
73572;DHT22;61854;48.510;-2.770;2023-07-13T07:27:30;18.30;93.40
73572;DHT22;61854;48.510;-2.770;2023-07-13T07:29:56;18.10;93.10
73572;DHT22;61854;48.510;-2.770;2023-07-13T07:32:23;18.30;93.40
73572;DHT22;61854;48.510;-2.770;2023-07-13T07:34:48;18.20;93.00
73572;DHT22;61854;48.510;-2.770;2023-07-13T07:37:14;18.30;93.00
73572;DHT22;61854;48.510;-2.770;2023-07-13T07:39:40;18.30;93.00
73572;DHT22;61854;48.510;-2.770;2023-07-13T07:42:06;18.30;92.70
73572;DHT22;61854;48.510;-2.770;2023-07-13T07:44:32;18.40;92.90
73572;DHT22;61854;48.510;-2.770;2023-07-13T07:46:58;18.40;92.70
73572;DHT22;61854;48.510;-2.770;2023-07-13T07:49:24;18.50;92.20
73572;DHT22;61854;48.510;-2.770;2023-07-13T07:51:50;18.60;91.60
73572;DHT22;61854;48.510;-2.770;2023-07-13T07:54:16;18.60;91.70
73572;DHT22;61854;48.510;-2.770;2023-07-13T07:56:42;18.60;92.00
73572;DHT22;61854;48.510;-2.770;2023-07-13T07:59:08;18.70;91.30
73572;DHT22;61854;48.510;-2.770;2023-07-13T08:01:33;18.90;91.30
73572;DHT22;61854;48.510;-2.770;2023-07-13T08:03:59;19.10;91.00
73572;DHT22;61854;48.510;-2.770;2023-07-13T08:06:25;18.90;90.70
73572;DHT22;61854;48.510;-2.770;2023-07-13T08:08:51;19.00;90.40
73572;DHT22;61854;48.510;-2.770;2023-07-13T08:11:16;19.10;90.30
73572;DHT22;61854;48.510;-2.770;2023-07-13T08:13:42;19.10;90.30
73572;DHT22;61854;48.510;-2.770;2023-07-13T08:16:08;19.20;90.00
73572;DHT22;61854;48.510;-2.770;2023-07-13T08:18:34;19.30;89.00
73572;DHT22;61854;48.510;-2.770;2023-07-13T08:21:06;19.20;89.20
73572;DHT22;61854;48.510;-2.770;2023-07-13T08:23:33;19.40;89.90
73572;DHT22;61854;48.510;-2.770;2023-07-13T08:25:58;19.50;86.40
73572;DHT22;61854;48.510;-2.770;2023-07-13T08:28:27;19.50;86.40
73572;DHT22;61854;48.510;-2.770;2023-07-13T08:30:53;19.50;84.40
73572;DHT22;61854;48.510;-2.770;2023-07-13T08:33:20;19.60;85.90
73572;DHT22;61854;48.510;-2.770;2023-07-13T08:35:50;19.60;85.60
73572;DHT22;61854;48.510;-2.770;2023-07-13T08:38:17;19.60;86.10
73572;DHT22;61854;48.510;-2.770;2023-07-13T08:40:43;19.60;85.00
73572;DHT22;61854;48.510;-2.770;2023-07-13T08:43:34;19.40;84.50
73572;DHT22;61854;48.510;-2.770;2023-07-13T08:46:47;19.30;85.20
73572;DHT22;61854;48.510;-2.770;2023-07-13T08:49:03;19.20;85.70
73572;DHT22;61854;48.510;-2.770;2023-07-13T08:55:04;18.80;81.80
73572;DHT22;61854;48.510;-2.770;2023-07-13T08:57:27;18.60;83.50
73572;DHT22;61854;48.510;-2.770;2023-07-13T08:59:55;18.70;83.90
73572;DHT22;61854;48.510;-2.770;2023-07-13T09:08:17;18.90;83.70
73572;DHT22;61854;48.510;-2.770;2023-07-13T09:10:53;18.80;83.20
73572;DHT22;61854;48.510;-2.770;2023-07-13T09:16:04;18.60;84.30
73572;DHT22;61854;48.510;-2.770;2023-07-13T09:18:36;18.50;88.70
73572;DHT22;61854;48.510;-2.770;2023-07-13T09:21:09;18.40;91.00
73572;DHT22;61854;48.510;-2.770;2023-07-13T09:23:36;18.10;92.60
73572;DHT22;61854;48.510;-2.770;2023-07-13T09:26:17;17.80;93.60
73572;DHT22;61854;48.510;-2.770;2023-07-13T09:28:45;17.70;94.50
73572;DHT22;61854;48.510;-2.770;2023-07-13T09:33:40;17.90;94.50
73572;DHT22;61854;48.510;-2.770;2023-07-13T09:36:22;18.20;94.90
73572;DHT22;61854;48.510;-2.770;2023-07-13T09:44:11;19.00;93.70
73572;DHT22;61854;48.510;-2.770;2023-07-13T09:46:39;19.00;92.20
73572;DHT22;61854;48.510;-2.770;2023-07-13T09:49:10;19.00;88.50
73572;DHT22;61854;48.510;-2.770;2023-07-13T09:51:43;18.80;87.50
73572;DHT22;61854;48.510;-2.770;2023-07-13T09:54:28;19.00;87.50
73572;DHT22;61854;48.510;-2.770;2023-07-13T09:56:58;19.10;86.50
73572;DHT22;61854;48.510;-2.770;2023-07-13T09:59:35;19.30;87.70
73572;DHT22;61854;48.510;-2.770;2023-07-13T10:02:01;19.20;90.00
73572;DHT22;61854;48.510;-2.770;2023-07-13T10:04:33;19.40;89.60
73572;DHT22;61854;48.510;-2.770;2023-07-13T10:07:11;19.70;87.80
73572;DHT22;61854;48.510;-2.770;2023-07-13T10:09:38;20.10;86.50
73572;DHT22;61854;48.510;-2.770;2023-07-13T10:12:13;20.10;85.90
73572;DHT22;61854;48.510;-2.770;2023-07-13T10:14:40;20.20;85.60
73572;DHT22;61854;48.510;-2.770;2023-07-13T10:17:12;20.30;84.80
73572;DHT22;61854;48.510;-2.770;2023-07-13T10:19:38;20.40;82.70
73572;DHT22;61854;48.510;-2.770;2023-07-13T10:22:25;20.50;84.00
73572;DHT22;61854;48.510;-2.770;2023-07-13T10:24:53;20.50;83.60
73572;DHT22;61854;48.510;-2.770;2023-07-13T10:27:28;20.50;82.10
73572;DHT22;61854;48.510;-2.770;2023-07-13T10:30:21;20.50;82.20
73572;DHT22;61854;48.510;-2.770;2023-07-13T10:32:49;20.60;82.80
73572;DHT22;61854;48.510;-2.770;2023-07-13T10:35:18;20.70;80.90
73572;DHT22;61854;48.510;-2.770;2023-07-13T10:38:34;20.70;81.40
73572;DHT22;61854;48.510;-2.770;2023-07-13T10:40:42;21.10;80.60
73572;DHT22;61854;48.510;-2.770;2023-07-13T10:43:36;21.20;79.00
73572;DHT22;61854;48.510;-2.770;2023-07-13T10:46:10;21.20;78.40
73572;DHT22;61854;48.510;-2.770;2023-07-13T10:48:36;21.10;79.30
73572;DHT22;61854;48.510;-2.770;2023-07-13T10:51:05;21.20;79.40
73572;DHT22;61854;48.510;-2.770;2023-07-13T10:53:34;21.40;77.30
73572;DHT22;61854;48.510;-2.770;2023-07-13T10:56:05;21.30;75.70
73572;DHT22;61854;48.510;-2.770;2023-07-13T10:58:40;21.00;78.70
73572;DHT22;61854;48.510;-2.770;2023-07-13T11:01:08;21.00;78.00
73572;DHT22;61854;48.510;-2.770;2023-07-13T11:18:52;19.40;88.80
73572;DHT22;61854;48.510;-2.770;2023-07-13T11:21:23;19.20;90.40
73572;DHT22;61854;48.510;-2.770;2023-07-13T11:26:41;19.30;91.70
73572;DHT22;61854;48.510;-2.770;2023-07-13T11:29:33;19.40;90.90
73572;DHT22;61854;48.510;-2.770;2023-07-13T11:32:21;19.50;90.20
73572;DHT22;61854;48.510;-2.770;2023-07-13T11:34:47;19.50;90.00
73572;DHT22;61854;48.510;-2.770;2023-07-13T11:37:16;19.80;85.80
73572;DHT22;61854;48.510;-2.770;2023-07-13T11:39:44;19.80;85.80
73572;DHT22;61854;48.510;-2.770;2023-07-13T11:42:16;20.10;85.40
73572;DHT22;61854;48.510;-2.770;2023-07-13T11:44:44;20.20;85.90
73572;DHT22;61854;48.510;-2.770;2023-07-13T11:47:14;20.50;83.10
73572;DHT22;61854;48.510;-2.770;2023-07-13T11:49:45;20.80;77.30
73572;DHT22;61854;48.510;-2.770;2023-07-13T11:52:22;20.90;76.20
73572;DHT22;61854;48.510;-2.770;2023-07-13T11:54:51;21.30;75.60
73572;DHT22;61854;48.510;-2.770;2023-07-13T11:57:32;21.50;73.90
73572;DHT22;61854;48.510;-2.770;2023-07-13T12:00:03;21.60;70.30
73572;DHT22;61854;48.510;-2.770;2023-07-13T12:02:39;21.60;71.90
73572;DHT22;61854;48.510;-2.770;2023-07-13T12:05:10;21.60;71.00
73572;DHT22;61854;48.510;-2.770;2023-07-13T12:07:37;21.40;69.90
73572;DHT22;61854;48.510;-2.770;2023-07-13T12:13:03;22.00;66.20
73572;DHT22;61854;48.510;-2.770;2023-07-13T12:15:42;22.10;63.90
73572;DHT22;61854;48.510;-2.770;2023-07-13T12:18:18;22.10;64.50
73572;DHT22;61854;48.510;-2.770;2023-07-13T12:20:45;21.90;65.60
73572;DHT22;61854;48.510;-2.770;2023-07-13T12:23:34;22.30;63.70
73572;DHT22;61854;48.510;-2.770;2023-07-13T12:26:02;22.50;60.90
73572;DHT22;61854;48.510;-2.770;2023-07-13T12:28:38;22.50;62.20
73572;DHT22;61854;48.510;-2.770;2023-07-13T12:31:07;22.10;65.70
73572;DHT22;61854;48.510;-2.770;2023-07-13T12:33:44;22.20;65.30
73572;DHT22;61854;48.510;-2.770;2023-07-13T12:36:12;22.20;64.50
73572;DHT22;61854;48.510;-2.770;2023-07-13T12:38:37;22.10;65.70
73572;DHT22;61854;48.510;-2.770;2023-07-13T12:41:03;21.90;66.60
73572;DHT22;61854;48.510;-2.770;2023-07-13T12:43:34;21.90;68.30
73572;DHT22;61854;48.510;-2.770;2023-07-13T12:46:20;21.80;68.90
73572;DHT22;61854;48.510;-2.770;2023-07-13T12:48:50;21.40;67.80
73572;DHT22;61854;48.510;-2.770;2023-07-13T12:51:17;21.50;67.50
73572;DHT22;61854;48.510;-2.770;2023-07-13T12:53:59;21.20;68.40
73572;DHT22;61854;48.510;-2.770;2023-07-13T12:56:32;21.40;69.10
73572;DHT22;61854;48.510;-2.770;2023-07-13T12:59:03;21.40;68.80
73572;DHT22;61854;48.510;-2.770;2023-07-13T13:01:34;21.40;70.20
73572;DHT22;61854;48.510;-2.770;2023-07-13T13:04:03;20.80;74.30
73572;DHT22;61854;48.510;-2.770;2023-07-13T13:06:34;20.90;75.10
73572;DHT22;61854;48.510;-2.770;2023-07-13T13:09:01;21.00;74.10
73572;DHT22;61854;48.510;-2.770;2023-07-13T13:11:30;21.10;73.40
73572;DHT22;61854;48.510;-2.770;2023-07-13T13:13:56;21.30;73.70
73572;DHT22;61854;48.510;-2.770;2023-07-13T13:16:31;21.40;71.40
73572;DHT22;61854;48.510;-2.770;2023-07-13T13:21:43;21.40;71.20
73572;DHT22;61854;48.510;-2.770;2023-07-13T13:24:13;21.40;72.70
73572;DHT22;61854;48.510;-2.770;2023-07-13T13:26:40;21.40;71.60
73572;DHT22;61854;48.510;-2.770;2023-07-13T13:29:27;21.30;72.20
73572;DHT22;61854;48.510;-2.770;2023-07-13T13:31:54;21.10;72.30
73572;DHT22;61854;48.510;-2.770;2023-07-13T13:34:21;21.20;72.70
73572;DHT22;61854;48.510;-2.770;2023-07-13T13:36:50;21.30;70.00
73572;DHT22;61854;48.510;-2.770;2023-07-13T13:39:25;21.40;68.10
73572;DHT22;61854;48.510;-2.770;2023-07-13T13:41:52;21.50;69.60
73572;DHT22;61854;48.510;-2.770;2023-07-13T13:44:20;21.30;69.10
73572;DHT22;61854;48.510;-2.770;2023-07-13T13:46:49;21.10;69.30
73572;DHT22;61854;48.510;-2.770;2023-07-13T13:49:19;21.00;72.10
73572;DHT22;61854;48.510;-2.770;2023-07-13T13:51:46;21.10;72.10
73572;DHT22;61854;48.510;-2.770;2023-07-13T13:54:16;21.40;72.10
73572;DHT22;61854;48.510;-2.770;2023-07-13T13:56:43;21.30;71.80
73572;DHT22;61854;48.510;-2.770;2023-07-13T13:59:10;21.20;72.80
73572;DHT22;61854;48.510;-2.770;2023-07-13T14:01:36;21.10;73.50
73572;DHT22;61854;48.510;-2.770;2023-07-13T14:04:02;21.00;74.90
73572;DHT22;61854;48.510;-2.770;2023-07-13T14:06:27;21.20;74.10
73572;DHT22;61854;48.510;-2.770;2023-07-13T14:08:53;21.10;73.00
73572;DHT22;61854;48.510;-2.770;2023-07-13T14:11:21;20.90;74.80
73572;DHT22;61854;48.510;-2.770;2023-07-13T14:13:53;21.20;74.70
73572;DHT22;61854;48.510;-2.770;2023-07-13T14:16:21;21.10;71.30
73572;DHT22;61854;48.510;-2.770;2023-07-13T14:18:49;21.20;71.70
73572;DHT22;61854;48.510;-2.770;2023-07-13T14:21:20;21.50;71.10
73572;DHT22;61854;48.510;-2.770;2023-07-13T14:23:47;21.80;71.00
73572;DHT22;61854;48.510;-2.770;2023-07-13T14:26:16;22.20;67.30
73572;DHT22;61854;48.510;-2.770;2023-07-13T14:28:44;22.00;67.80
73572;DHT22;61854;48.510;-2.770;2023-07-13T14:31:15;22.20;69.40
73572;DHT22;61854;48.510;-2.770;2023-07-13T14:33:41;22.10;64.80
73572;DHT22;61854;48.510;-2.770;2023-07-13T14:39:16;22.80;62.90
73572;DHT22;61854;48.510;-2.770;2023-07-13T14:41:43;23.20;64.10
73572;DHT22;61854;48.510;-2.770;2023-07-13T14:44:15;22.70;63.70
73572;DHT22;61854;48.510;-2.770;2023-07-13T14:46:41;22.60;65.20
73572;DHT22;61854;48.510;-2.770;2023-07-13T14:51:48;22.00;65.10
73572;DHT22;61854;48.510;-2.770;2023-07-13T14:54:14;21.80;67.10
73572;DHT22;61854;48.510;-2.770;2023-07-13T14:56:40;22.00;68.10
73572;DHT22;61854;48.510;-2.770;2023-07-13T14:59:05;22.00;68.40
73572;DHT22;61854;48.510;-2.770;2023-07-13T15:01:34;21.80;68.80
73572;DHT22;61854;48.510;-2.770;2023-07-13T15:04:00;21.90;70.00
73572;DHT22;61854;48.510;-2.770;2023-07-13T15:06:26;21.60;71.90
73572;DHT22;61854;48.510;-2.770;2023-07-13T15:08:51;21.90;73.20
73572;DHT22;61854;48.510;-2.770;2023-07-13T15:11:17;22.00;73.00
73572;DHT22;61854;48.510;-2.770;2023-07-13T15:13:43;21.90;71.70
73572;DHT22;61854;48.510;-2.770;2023-07-13T15:16:17;21.40;74.50
73572;DHT22;61854;48.510;-2.770;2023-07-13T15:18:44;21.30;75.60
73572;DHT22;61854;48.510;-2.770;2023-07-13T15:21:13;21.10;76.60
73572;DHT22;61854;48.510;-2.770;2023-07-13T15:23:40;20.80;78.80
73572;DHT22;61854;48.510;-2.770;2023-07-13T15:26:15;20.40;79.80
73572;DHT22;61854;48.510;-2.770;2023-07-13T15:28:42;20.30;83.10
73572;DHT22;61854;48.510;-2.770;2023-07-13T15:31:24;20.30;83.90
73572;DHT22;61854;48.510;-2.770;2023-07-13T15:33:51;20.30;82.70
73572;DHT22;61854;48.510;-2.770;2023-07-13T15:36:21;20.20;83.40
73572;DHT22;61854;48.510;-2.770;2023-07-13T15:38:48;20.20;83.90
73572;DHT22;61854;48.510;-2.770;2023-07-13T15:41:27;20.50;84.80
73572;DHT22;61854;48.510;-2.770;2023-07-13T15:43:55;21.00;83.00
73572;DHT22;61854;48.510;-2.770;2023-07-13T15:46:24;21.20;81.50
73572;DHT22;61854;48.510;-2.770;2023-07-13T15:48:51;21.10;81.90
73572;DHT22;61854;48.510;-2.770;2023-07-13T15:51:24;21.20;80.80
73572;DHT22;61854;48.510;-2.770;2023-07-13T15:53:52;21.00;79.70
73572;DHT22;61854;48.510;-2.770;2023-07-13T15:56:22;20.90;79.20
73572;DHT22;61854;48.510;-2.770;2023-07-13T15:58:49;20.70;80.80
73572;DHT22;61854;48.510;-2.770;2023-07-13T16:01:15;20.60;80.20
73572;DHT22;61854;48.510;-2.770;2023-07-13T16:03:41;20.90;79.70
73572;DHT22;61854;48.510;-2.770;2023-07-13T16:08:41;21.70;76.20
73572;DHT22;61854;48.510;-2.770;2023-07-13T16:11:15;22.10;74.80
73572;DHT22;61854;48.510;-2.770;2023-07-13T16:13:42;22.10;70.80
73572;DHT22;61854;48.510;-2.770;2023-07-13T16:16:11;22.10;72.30
73572;DHT22;61854;48.510;-2.770;2023-07-13T16:18:37;22.00;72.00